Time;durP1;ratioP1;P1;durP2;ratioP2;P2;SDS_P1;SDS_P2;PMS_P1;PMS_P2;Temp;Humidity;BMP_temperature;BMP_pressure;BME280_temperature;BME280_humidity;BME280_pressure;Samples;Min_cycle;Max_cycle;Signal;HPM_P1;HPM_P2
2022/12/01 00:02:24;;;;;;;135.05;37.08;;;;;;;4.97;100.00;102637.47;4888388;29;20717;-73
2022/12/01 00:04:50;;;;;;;131.10;37.45;;;;;;;4.97;100.00;102640.13;4886734;29;20040;-74
2022/12/01 00:07:15;;;;;;;115.93;35.22;;;;;;;4.97;100.00;102642.75;4888106;29;20047;-72
2022/12/01 00:12:25;;;;;;;130.05;36.35;;;;;;;4.96;100.00;102643.66;4887873;29;20049;-74
2022/12/01 00:14:53;;;;;;;135.82;36.20;;;;;;;4.97;100.00;102638.38;4887565;29;20086;-73
2022/12/01 00:17:21;;;;;;;145.80;41.15;;;;;;;5.00;100.00;102642.75;4887705;29;20494;-72
2022/12/01 00:19:47;;;;;;;131.70;35.58;;;;;;;4.96;100.00;102633.09;4887147;29;20409;-73
2022/12/01 00:22:13;;;;;;;130.93;37.05;;;;;;;4.93;100.00;102634.88;4887322;29;20079;-72
2022/12/01 00:24:39;;;;;;;140.77;40.33;;;;;;;4.92;100.00;102638.44;4885843;29;20490;-72
2022/12/01 00:27:04;;;;;;;138.93;39.70;;;;;;;4.95;100.00;102640.16;4887531;29;20036;-72
2022/12/01 00:29:30;;;;;;;143.38;32.92;;;;;;;4.87;100.00;102636.69;4886176;29;20048;-73
2022/12/01 00:31:55;;;;;;;138.23;33.97;;;;;;;4.87;100.00;102634.06;4887267;29;20048;-74
2022/12/01 00:34:23;;;;;;;135.40;36.35;;;;;;;4.85;100.00;102628.78;4887015;29;20573;-72
2022/12/01 00:36:49;;;;;;;131.55;36.83;;;;;;;4.86;100.00;102637.59;4885524;29;20096;-73
2022/12/01 00:39:14;;;;;;;123.80;33.95;;;;;;;4.86;100.00;102637.59;4887186;29;20045;-72
2022/12/01 00:41:40;;;;;;;113.68;31.25;;;;;;;4.86;100.00;102632.31;4887342;29;20104;-74
2022/12/01 00:44:06;;;;;;;147.18;36.92;;;;;;;4.89;100.00;102633.16;4887477;29;20064;-73
2022/12/01 00:46:31;;;;;;;115.57;33.90;;;;;;;4.89;100.00;102638.44;4887032;29;20048;-73
2022/12/01 00:48:57;;;;;;;146.95;35.97;;;;;;;4.87;100.00;102634.06;4887450;29;20059;-74
2022/12/01 00:51:23;;;;;;;120.63;34.38;;;;;;;4.89;100.00;102650.78;4886290;29;20048;-74
2022/12/01 00:53:48;;;;;;;134.73;36.00;;;;;;;4.89;100.00;102650.78;4890741;29;20048;-72
2022/12/01 00:56:14;;;;;;;158.25;35.05;;;;;;;4.87;100.00;102645.53;4890568;29;20155;-74
2022/12/01 00:58:39;;;;;;;131.18;36.45;;;;;;;4.89;100.00;102645.50;4890603;29;20049;-73
2022/12/01 01:01:05;;;;;;;139.75;34.97;;;;;;;4.89;100.00;102648.16;4890378;29;20039;-74
2022/12/01 01:03:31;;;;;;;118.80;36.10;;;;;;;4.90;100.00;102644.59;4890765;29;20060;-74
2022/12/01 01:06:04;;;;;;;117.00;35.08;;;;;;;4.89;100.00;102656.06;4890381;29;20463;-74
2022/12/01 01:08:29;;;;;;;;;;;;;;;4.88;100.00;102652.56;4889851;29;20049;-74
2022/12/01 01:10:58;;;;;;;128.93;33.83;;;;;;;4.90;100.00;102649.91;4890389;29;19930;-73
2022/12/01 01:13:24;;;;;;;119.00;32.00;;;;;;;4.88;100.00;102656.97;4890113;29;20144;-73
2022/12/01 01:16:10;;;;;;;127.75;35.17;;;;;;;4.90;100.00;102653.41;4890148;29;20100;-74
2022/12/01 01:18:36;;;;;;;136.55;34.95;;;;;;;4.88;100.00;102649.91;4890375;29;20775;-74
2022/12/01 01:21:05;;;;;;;124.25;33.80;;;;;;;4.86;100.00;102656.97;4890814;29;20048;-75
2022/12/01 01:23:31;;;;;;;125.55;33.63;;;;;;;4.87;100.00;102655.19;4890369;29;20051;-74
2022/12/01 01:26:27;;;;;;;133.23;36.38;;;;;;;4.85;100.00;102663.16;4890531;29;20040;-74
2022/12/01 01:28:59;;;;;;;125.60;33.80;;;;;;;4.85;100.00;102667.56;4885120;29;20258;-73
2022/12/01 01:31:27;;;;;;;121.35;34.35;;;;;;;4.86;100.00;102664.03;4889788;29;20786;-74
2022/12/01 01:33:55;;;;;;;108.85;34.28;;;;;;;4.85;100.00;102668.44;4889851;29;20045;-75
2022/12/01 01:36:20;;;;;;;124.05;37.78;;;;;;;4.85;100.00;102673.72;4889958;29;20059;-72
2022/12/01 01:38:47;;;;;;;121.82;33.25;;;;;;;4.87;100.00;102668.41;4889881;29;20040;-72
2022/12/01 01:41:13;;;;;;;110.90;34.30;;;;;;;4.86;100.00;102675.47;4890309;29;20049;-73
2022/12/01 01:43:50;;;;;;;118.90;33.17;;;;;;;4.89;100.00;102672.81;4889837;29;20055;-74
2022/12/01 01:46:17;;;;;;;112.93;34.78;;;;;;;4.88;100.00;102676.34;4888202;29;20053;-73
2022/12/01 01:48:51;;;;;;;132.40;34.75;;;;;;;4.88;100.00;102671.06;4889224;29;20513;-73
2022/12/01 01:51:22;;;;;;;114.57;32.88;;;;;;;4.88;100.00;102671.06;4889462;29;20044;-73
2022/12/01 01:53:52;;;;;;;112.90;34.17;;;;;;;4.89;100.00;102672.81;4887846;29;20071;-73
2022/12/01 01:56:17;;;;;;;119.28;35.88;;;;;;;4.91;100.00;102672.78;4889381;29;20045;-74
2022/12/01 01:58:43;;;;;;;109.50;34.05;;;;;;;4.89;100.00;102669.28;4889609;29;20689;-73
2022/12/01 02:01:09;;;;;;;123.78;34.63;;;;;;;4.88;100.00;102672.84;4889636;29;20064;-74
2022/12/01 02:03:36;;;;;;;114.40;33.33;;;;;;;4.88;100.00;102665.78;4888973;29;20135;-74
2022/12/01 02:06:03;;;;;;;104.28;33.10;;;;;;;4.87;100.00;102664.03;4888112;29;20052;-74
2022/12/01 02:08:31;;;;;;;109.47;33.75;;;;;;;4.88;100.00;102655.22;4887838;29;20055;-74
2022/12/01 02:11:27;;;;;;;95.88;28.95;;;;;;;4.87;100.00;102664.03;4887591;29;20048;-73
2022/12/01 02:14:16;;;;;;;97.57;30.27;;;;;;;4.86;100.00;102661.38;4878442;29;20252;-72
2022/12/01 02:17:04;;;;;;;120.75;35.08;;;;;;;4.88;100.00;102657.84;4889377;29;20060;-72
2022/12/01 02:20:04;;;;;;;105.93;31.98;;;;;;;4.86;100.00;102656.97;4889495;29;20068;-73
2022/12/01 02:22:49;;;;;;;100.13;30.75;;;;;;;4.87;100.00;102655.19;4878693;29;20052;-74
2022/12/01 02:25:35;;;;;;;125.47;32.50;;;;;;;4.86;100.00;102661.38;4889329;29;20045;-74
2022/12/01 02:28:32;;;;;;;115.68;34.17;;;;;;;4.86;100.00;102658.75;4889557;29;20656;-74
2022/12/01 02:31:07;;;;;;;110.63;32.47;;;;;;;4.84;100.00;102661.41;4878248;29;20075;-73
2022/12/01 02:33:41;;;;;;;94.93;29.92;;;;;;;4.86;100.00;102664.03;4888386;29;20048;-72
2022/12/01 02:36:18;;;;;;;119.68;33.90;;;;;;;4.84;100.00;102669.34;4888513;29;20053;-72
2022/12/01 02:38:53;;;;;;;103.05;31.20;;;;;;;4.85;100.00;102665.81;4888492;29;20045;-73
2022/12/01 02:41:38;;;;;;;110.80;33.17;;;;;;;4.85;100.00;102667.56;4888930;29;20791;-73
2022/12/01 02:44:40;;;;;;;113.07;34.05;;;;;;;4.84;100.00;102660.53;4888586;29;20045;-74
2022/12/01 02:47:13;;;;;;;113.70;33.13;;;;;;;4.85;100.00;102660.50;4886824;29;20200;-73
2022/12/01 02:49:50;;;;;;;116.63;34.13;;;;;;;4.83;100.00;102662.31;4888675;29;20042;-74
2022/12/01 02:52:17;;;;;;;121.13;36.55;;;;;;;4.83;100.00;102657.03;4888784;29;20651;-74
2022/12/01 02:54:44;;;;;;;114.82;33.95;;;;;;;4.83;100.00;102664.94;4875523;29;20149;-74
2022/12/01 02:57:14;;;;;;;105.88;32.25;;;;;;;4.81;100.00;102669.34;4889301;29;20139;-74
2022/12/01 02:59:43;;;;;;;108.25;32.28;;;;;;;4.84;100.00;102669.34;4887133;29;20048;-73
2022/12/01 03:02:13;;;;;;;84.78;28.85;;;;;;;4.88;100.00;102667.56;4889002;29;20905;-73
2022/12/01 03:05:08;;;;;;;102.82;30.98;;;;;;;4.90;100.00;102671.03;4887026;29;20036;-73
2022/12/01 03:08:00;;;;;;;105.05;32.90;;;;;;;4.89;100.00;102666.66;4888210;29;20049;-72
2022/12/01 03:10:58;;;;;;;109.88;31.08;;;;;;;4.89;100.00;102670.16;4888080;29;20076;-74
2022/12/01 03:13:54;;;;;;;109.35;31.95;;;;;;;4.87;100.00;102666.69;4890782;29;20481;-72
2022/12/01 03:16:32;;;;;;;91.85;28.35;;;;;;;4.87;100.00;102666.69;4874936;29;20048;-74
2022/12/01 03:19:25;;;;;;;108.15;32.10;;;;;;;4.90;100.00;102671.91;4885925;29;20141;-73
2022/12/01 03:22:04;;;;;;;103.00;31.13;;;;;;;4.86;100.00;102672.84;4875682;29;20676;-72
2022/12/01 03:24:31;;;;;;;108.50;29.48;;;;;;;4.84;100.00;102677.28;4874662;29;20823;-74
2022/12/01 03:26:59;;;;;;;105.47;32.97;;;;;;;4.85;100.00;102672.84;4888196;29;20604;-73
2022/12/01 03:29:35;;;;;;;125.78;33.10;;;;;;;4.85;100.00;102675.50;4887808;29;20044;-73
2022/12/01 03:32:11;;;;;;;107.95;33.03;;;;;;;4.86;100.00;102671.97;4873904;29;20458;-73
2022/12/01 03:34:42;;;;;;;106.60;33.80;;;;;;;4.82;100.00;102672.88;4882208;29;20121;-72
2022/12/01 03:37:25;;;;;;;112.13;31.95;;;;;;;4.82;100.00;102675.50;4888095;29;20041;-72
2022/12/01 03:39:56;;;;;;;109.50;31.45;;;;;;;4.81;100.00;102676.41;4887961;29;20041;-73
2022/12/01 03:42:36;;;;;;;114.78;34.90;;;;;;;4.82;100.00;102668.50;4875602;29;20056;-74
2022/12/01 03:45:09;;;;;;;115.40;34.92;;;;;;;4.79;100.00;102665.00;4888186;29;20041;-73
2022/12/01 03:47:36;;;;;;;102.55;31.58;;;;;;;4.81;100.00;102672.00;4891217;29;20040;-74
2022/12/01 03:50:04;;;;;;;106.60;36.60;;;;;;;4.78;100.00;102664.13;4892940;29;20507;-72
2022/12/01 03:52:39;;;;;;;120.57;32.65;;;;;;;4.78;100.00;102671.19;4875572;29;20047;-72
2022/12/01 03:55:18;;;;;;;116.05;31.30;;;;;;;4.76;100.00;102671.16;4886445;29;20045;-73
2022/12/01 03:57:47;;;;;;;122.95;33.50;;;;;;;4.75;100.00;102673.84;4876436;29;20123;-73
2022/12/01 04:00:14;;;;;;;105.90;33.85;;;;;;;4.78;100.00;102668.53;4886431;29;20575;-74
2022/12/01 04:02:40;;;;;;;133.75;36.53;;;;;;;4.76;100.00;102675.59;4873583;29;20053;-74
2022/12/01 04:05:08;;;;;;;130.88;36.88;;;;;;;4.78;100.00;102673.81;4886594;29;20048;-74
2022/12/01 04:07:34;;;;;;;123.00;35.38;;;;;;;4.75;100.00;102677.34;4887658;29;20486;-73
2022/12/01 04:09:59;;;;;;;123.55;35.45;;;;;;;4.75;100.00;102677.34;4892666;29;20048;-73
2022/12/01 04:12:28;;;;;;;142.52;37.15;;;;;;;4.74;100.00;102678.25;4884652;29;20048;-74
2022/12/01 04:14:55;;;;;;;132.35;37.53;;;;;;;4.76;100.00;102687.03;4874440;29;20561;-72
2022/12/01 04:17:20;;;;;;;134.80;37.38;;;;;;;4.74;100.00;102685.31;4887079;29;20076;-73
2022/12/01 04:19:47;;;;;;;136.57;34.25;;;;;;;4.73;100.00;102678.28;4887475;29;20083;-73
2022/12/01 04:22:12;;;;;;;124.50;33.60;;;;;;;4.72;100.00;102690.63;4887078;29;20513;-73
2022/12/01 04:24:38;;;;;;;132.20;37.88;;;;;;;4.73;100.00;102681.78;4886783;29;20048;-72
2022/12/01 04:27:03;;;;;;;113.50;31.65;;;;;;;4.75;100.00;102677.34;4895562;29;20047;-74
2022/12/01 04:29:29;;;;;;;126.68;34.53;;;;;;;4.75;100.00;102682.63;4891499;29;20036;-73
2022/12/01 04:31:54;;;;;;;132.93;35.10;;;;;;;4.74;100.00;102678.25;4893161;29;20090;-73
2022/12/01 04:34:20;;;;;;;145.38;36.30;;;;;;;4.77;100.00;102680.88;4891775;29;20624;-73
2022/12/01 04:36:45;;;;;;;135.75;36.75;;;;;;;4.80;100.00;102679.94;4887669;29;20045;-74
2022/12/01 04:39:11;;;;;;;138.10;37.90;;;;;;;4.77;100.00;102665.03;4885013;29;20051;-73
2022/12/01 04:41:36;;;;;;;140.48;37.00;;;;;;;4.73;100.00;102673.00;4892469;29;20036;-71
2022/12/01 04:44:02;;;;;;;148.52;39.85;;;;;;;4.68;100.00;102668.63;4892951;29;20488;-73
2022/12/01 04:46:27;;;;;;;134.68;37.60;;;;;;;4.66;100.00;102664.22;4892782;29;20709;-74
2022/12/01 04:48:53;;;;;;;142.82;37.90;;;;;;;4.61;100.00;102666.91;4885744;29;20456;-73
2022/12/01 04:51:21;;;;;;;142.82;38.55;;;;;;;4.59;100.00;102675.75;4886360;29;20040;-74
2022/12/01 04:53:47;;;;;;;141.50;36.85;;;;;;;4.61;100.00;102668.69;4885795;29;20041;-72
2022/12/01 04:56:12;;;;;;;138.82;36.40;;;;;;;4.59;100.00;102673.97;4885123;29;20048;-74
2022/12/01 04:58:39;;;;;;;126.28;36.17;;;;;;;4.53;100.00;102670.53;4891367;29;20049;-73
2022/12/01 05:01:13;;;;;;;124.60;35.38;;;;;;;4.56;100.00;102670.47;4883958;29;20037;-74
2022/12/01 05:03:40;;;;;;;134.85;36.83;;;;;;;4.50;100.00;102670.53;4887183;29;20123;-74
2022/12/01 05:06:11;;;;;;;150.32;40.08;;;;;;;4.54;100.00;102678.44;4882689;29;20060;-73
2022/12/01 05:08:37;;;;;;;128.25;35.60;;;;;;;4.53;100.00;102673.16;4889603;29;20052;-73
2022/12/01 05:11:03;;;;;;;137.18;36.72;;;;;;;4.53;100.00;102676.69;4879846;29;20197;-72
2022/12/01 05:13:29;;;;;;;152.57;39.95;;;;;;;4.52;100.00;102674.03;4892559;29;20056;-74
2022/12/01 05:16:04;;;;;;;133.35;39.38;;;;;;;4.52;100.00;102674.94;4892662;29;20071;-74
2022/12/01 05:18:29;;;;;;;140.13;38.38;;;;;;;4.52;100.00;102667.00;4893090;29;20091;-74
2022/12/01 05:20:58;;;;;;;135.55;38.33;;;;;;;4.54;100.00;102672.28;4880048;29;20029;-74
2022/12/01 05:23:28;;;;;;;126.82;39.30;;;;;;;4.55;100.00;102677.53;4891442;29;20048;-73
2022/12/01 05:25:54;;;;;;;126.00;36.47;;;;;;;4.56;100.00;102678.41;4893553;29;20059;-74
2022/12/01 05:28:22;;;;;;;123.88;37.53;;;;;;;4.57;100.00;102678.41;4887645;29;20044;-74
2022/12/01 05:30:48;;;;;;;124.40;34.90;;;;;;;4.55;100.00;102674.88;4886095;29;20033;-74
2022/12/01 05:33:14;;;;;;;122.30;36.95;;;;;;;4.54;100.00;102675.78;4881686;29;20052;-74
2022/12/01 05:35:39;;;;;;;129.13;39.00;;;;;;;4.57;100.00;102685.47;4888660;29;20040;-74
2022/12/01 05:38:05;;;;;;;119.22;39.63;;;;;;;4.55;100.00;102680.19;4886403;29;20040;-74
2022/12/01 05:40:30;;;;;;;134.52;40.63;;;;;;;4.56;100.00;102675.75;4888329;29;20063;-73
2022/12/01 05:42:57;;;;;;;116.05;36.67;;;;;;;4.62;100.00;102681.91;4889656;29;20401;-74
2022/12/01 05:45:23;;;;;;;109.22;35.08;;;;;;;4.61;100.00;102684.53;4888868;29;20714;-74
2022/12/01 05:47:49;;;;;;;111.13;34.63;;;;;;;4.61;100.00;102685.41;4889912;29;20044;-74
2022/12/01 05:50:15;;;;;;;119.55;36.15;;;;;;;4.62;100.00;102679.25;4897252;29;20193;-75
2022/12/01 05:52:40;;;;;;;102.00;33.13;;;;;;;4.64;100.00;102687.16;4880172;29;20041;-73
2022/12/01 05:55:06;;;;;;;102.57;34.88;;;;;;;4.64;100.00;102684.50;4889087;29;20056;-74
2022/12/01 05:57:32;;;;;;;109.70;35.30;;;;;;;4.64;100.00;102689.78;4889191;29;20052;-73
2022/12/01 05:59:58;;;;;;;108.43;34.03;;;;;;;4.63;100.00;102694.22;4889686;29;20040;-73
2022/12/01 06:02:25;;;;;;;118.13;34.65;;;;;;;4.64;100.00;102692.44;4897010;29;20876;-72
2022/12/01 06:04:52;;;;;;;98.95;32.97;;;;;;;4.60;100.00;102686.28;4888990;29;20062;-73
2022/12/01 06:07:18;;;;;;;114.07;33.55;;;;;;;4.61;100.00;102692.44;4889078;29;20088;-73
2022/12/01 06:09:45;;;;;;;101.32;34.10;;;;;;;4.58;100.00;102693.38;4887344;29;20075;-73
2022/12/01 06:12:11;;;;;;;104.88;34.75;;;;;;;4.65;100.00;102689.78;4890032;29;20098;-73
2022/12/01 06:14:37;;;;;;;104.90;33.28;;;;;;;4.60;100.00;102685.41;4888944;29;20060;-75
2022/12/01 06:17:03;;;;;;;96.47;33.70;;;;;;;4.62;100.00;102697.75;4888790;29;20609;-73
2022/12/01 06:19:30;;;;;;;100.70;34.47;;;;;;;4.64;100.00;102697.72;4887498;29;20052;-72
2022/12/01 06:21:55;;;;;;;99.70;31.17;;;;;;;4.58;100.00;102695.13;4883454;29;20036;-72
2022/12/01 06:24:21;;;;;;;99.47;31.77;;;;;;;4.59;100.00;102699.53;4877044;29;20108;-73
2022/12/01 06:26:46;;;;;;;116.18;34.45;;;;;;;4.56;100.00;102696.91;4884087;29;20033;-73
2022/12/01 06:29:12;;;;;;;95.45;33.42;;;;;;;4.56;100.00;102700.41;4889207;29;20040;-72
2022/12/01 06:31:37;;;;;;;104.47;33.53;;;;;;;4.57;100.00;102701.31;4882106;29;20110;-72
2022/12/01 06:34:02;;;;;;;103.40;32.83;;;;;;;4.57;100.00;102702.19;4888390;29;20750;-72
2022/12/01 06:36:28;;;;;;;103.15;32.58;;;;;;;4.57;100.00;102698.69;4889272;29;20033;-72
2022/12/01 06:38:53;;;;;;;103.72;32.78;;;;;;;4.57;100.00;102694.28;4889206;29;20040;-74
2022/12/01 06:41:19;;;;;;;107.75;34.47;;;;;;;4.56;100.00;102702.19;4889478;29;20044;-73
2022/12/01 06:43:44;;;;;;;93.15;31.48;;;;;;;4.53;100.00;102700.47;4888656;29;20047;-74
2022/12/01 06:46:10;;;;;;;104.72;32.08;;;;;;;4.52;100.00;102700.44;4887427;29;20048;-74
2022/12/01 06:48:35;;;;;;;98.10;33.58;;;;;;;4.45;100.00;102714.59;4888925;29;20108;-74
2022/12/01 06:51:01;;;;;;;96.20;32.33;;;;;;;4.43;100.00;102713.75;4884494;29;20063;-73
2022/12/01 06:53:28;;;;;;;103.82;31.25;;;;;;;4.38;100.00;102714.66;4892917;29;20119;-72
2022/12/01 06:55:58;;;;;;;93.45;31.50;;;;;;;4.41;100.00;102722.53;4892404;29;20045;-74
2022/12/01 06:58:23;;;;;;;107.28;33.78;;;;;;;4.36;100.00;102716.41;4894478;29;20096;-73
2022/12/01 07:00:49;;;;;;;97.05;32.88;;;;;;;4.31;100.00;102712.94;4888270;29;20535;-74
2022/12/01 07:03:14;;;;;;;103.35;35.45;;;;;;;4.33;100.00;102720.88;4888499;29;20044;-73
2022/12/01 07:05:39;;;;;;;106.45;34.42;;;;;;;4.29;100.00;102725.28;4887373;29;20048;-73
2022/12/01 07:08:05;;;;;;;117.88;35.42;;;;;;;4.29;100.00;102722.66;4888971;29;20055;-73
2022/12/01 07:10:31;;;;;;;119.65;38.65;;;;;;;4.42;100.00;102728.72;4888572;29;20049;-74
2022/12/01 07:12:56;;;;;;;120.72;37.65;;;;;;;4.48;100.00;102725.16;4888419;29;20162;-73
2022/12/01 07:15:23;;;;;;;127.47;38.45;;;;;;;4.44;100.00;102723.44;4888584;29;20048;-73
2022/12/01 07:17:49;;;;;;;112.18;36.10;;;;;;;4.37;100.00;102726.13;4888264;29;20048;-73
2022/12/01 07:20:14;;;;;;;114.05;33.05;;;;;;;4.41;100.00;102726.94;4886277;29;20056;-73
2022/12/01 07:22:41;;;;;;;135.88;37.13;;;;;;;4.46;100.00;102732.19;4888132;29;20096;-73
2022/12/01 07:25:08;;;;;;;124.55;36.40;;;;;;;4.49;100.00;102737.47;4887703;29;20816;-74
2022/12/01 07:27:34;;;;;;;119.95;38.92;;;;;;;4.46;100.00;102743.66;4886813;29;20553;-72
2022/12/01 07:29:59;;;;;;;120.88;39.53;;;;;;;4.48;100.00;102739.25;4887900;29;20048;-73
2022/12/01 07:32:25;;;;;;;128.15;37.05;;;;;;;4.49;100.00;102745.41;4884389;29;20044;-73
2022/12/01 07:34:50;;;;;;;118.57;35.40;;;;;;;4.49;100.00;102738.34;4886919;29;20048;-73
2022/12/01 07:37:16;;;;;;;121.75;35.88;;;;;;;4.53;100.00;102744.50;4887902;29;20036;-73
2022/12/01 07:39:41;;;;;;;122.88;37.13;;;;;;;4.54;100.00;102744.47;4885113;29;20429;-73
2022/12/01 07:42:07;;;;;;;119.07;35.90;;;;;;;4.54;100.00;102749.75;4884885;29;20059;-73
2022/12/01 07:44:32;;;;;;;132.70;39.30;;;;;;;4.57;100.00;102743.59;4878813;29;20048;-73
2022/12/01 07:46:57;;;;;;;124.22;38.90;;;;;;;4.55;100.00;102745.34;4879938;29;20045;-72
2022/12/01 07:49:23;;;;;;;146.68;39.15;;;;;;;4.59;100.00;102742.66;4878248;29;20089;-73
2022/12/01 07:51:48;;;;;;;129.88;41.45;;;;;;;4.62;100.00;102741.78;4883603;29;20055;-73
2022/12/01 07:54:15;;;;;;;152.00;41.72;;;;;;;4.66;100.00;102740.84;4887581;29;20095;-73
2022/12/01 07:56:41;;;;;;;129.32;38.97;;;;;;;4.66;100.00;102739.06;4884582;29;20056;-73
2022/12/01 07:59:07;;;;;;;142.80;37.70;;;;;;;4.68;100.00;102739.09;4880751;29;20044;-72
2022/12/01 08:01:32;;;;;;;127.03;39.55;;;;;;;4.68;100.00;102744.38;4884048;29;20036;-73
2022/12/01 08:03:58;;;;;;;120.85;38.08;;;;;;;4.71;100.00;102740.81;4886826;29;20040;-72
2022/12/01 08:06:25;;;;;;;135.52;41.33;;;;;;;4.70;100.00;102745.22;4886874;29;20111;-73
2022/12/01 08:08:51;;;;;;;118.00;36.17;;;;;;;4.73;100.00;102747.84;4886875;29;20064;-73
2022/12/01 08:11:20;;;;;;;115.47;36.10;;;;;;;4.74;100.00;102749.59;4880119;29;20033;-73
2022/12/01 08:13:46;;;;;;;137.50;38.28;;;;;;;4.82;100.00;102750.44;4887033;29;20040;-73
2022/12/01 08:16:13;;;;;;;123.70;39.83;;;;;;;4.83;100.00;102760.09;4886579;29;20497;-72
2022/12/01 08:18:40;;;;;;;118.05;36.28;;;;;;;4.84;100.00;102753.91;4886600;29;20502;-73
2022/12/01 08:21:07;;;;;;;127.47;37.08;;;;;;;4.87;100.00;102756.53;4886367;29;20088;-72
2022/12/01 08:23:32;;;;;;;122.90;37.38;;;;;;;4.88;100.00;102758.28;4886240;29;20134;-74
2022/12/01 08:26:07;;;;;;;121.07;35.72;;;;;;;4.91;100.00;102755.59;4886663;29;20037;-72
2022/12/01 08:28:35;;;;;;;130.32;36.22;;;;;;;4.91;100.00;102752.97;4886609;29;20044;-72
2022/12/01 08:31:13;;;;;;;121.32;37.67;;;;;;;4.94;100.00;102750.31;4886448;29;20494;-73
2022/12/01 08:33:39;;;;;;;120.90;40.45;;;;;;;4.98;100.00;102753.81;4884103;29;20139;-71
2022/12/01 08:36:05;;;;;;;121.90;37.53;;;;;;;5.02;100.00;102758.19;4884337;29;20118;-72
2022/12/01 08:38:31;;;;;;;117.70;37.17;;;;;;;5.03;100.00;102759.03;4886444;29;20032;-73
2022/12/01 08:41:01;;;;;;;127.38;39.00;;;;;;;5.02;100.00;102766.09;4886410;29;20036;-73
2022/12/01 08:43:27;;;;;;;125.90;35.63;;;;;;;5.05;100.00;102765.19;4869409;29;20141;-73
2022/12/01 08:45:53;;;;;;;125.20;35.88;;;;;;;5.08;100.00;102765.16;4884837;29;20051;-73
2022/12/01 08:48:18;;;;;;;125.15;38.20;;;;;;;5.08;100.00;102770.47;4872967;29;20041;-74
2022/12/01 08:50:43;;;;;;;125.30;35.90;;;;;;;5.12;100.00;102774.78;4886131;29;20045;-73
2022/12/01 08:53:09;;;;;;;117.68;36.65;;;;;;;5.09;100.00;102762.50;4873137;29;20435;-73
2022/12/01 08:55:35;;;;;;;122.97;39.08;;;;;;;5.09;100.00;102761.63;4886257;29;20128;-74
2022/12/01 08:58:00;;;;;;;123.18;38.83;;;;;;;5.16;100.00;102763.31;4874294;29;20079;-73
2022/12/01 09:00:26;;;;;;;125.38;35.85;;;;;;;5.17;100.00;102765.06;4884046;29;20048;-72
2022/12/01 09:02:51;;;;;;;123.93;36.45;;;;;;;5.11;100.00;102767.75;4881326;29;20040;-72
2022/12/01 09:05:17;;;;;;;107.63;33.55;;;;;;;5.15;100.00;102761.56;4884031;29;20494;-72
2022/12/01 09:07:44;;;;;;;124.30;38.40;;;;;;;5.23;100.00;102766.78;4864227;29;20041;-73
2022/12/01 09:10:09;;;;;;;116.63;37.60;;;;;;;5.22;100.00;102759.72;4879026;29;20048;-73
2022/12/01 09:12:35;;;;;;;132.15;36.28;;;;;;;5.21;100.00;102766.78;4887018;29;20220;-73
2022/12/01 09:15:00;;;;;;;119.07;38.83;;;;;;;5.23;100.00;102761.50;4888939;29;20131;-73
2022/12/01 09:17:27;;;;;;;123.82;35.58;;;;;;;5.28;100.00;102757.03;4887571;29;20040;-72
2022/12/01 09:19:52;;;;;;;117.35;36.42;;;;;;;5.30;100.00;102765.81;4889448;29;20041;-73
2022/12/01 09:22:18;;;;;;;124.60;39.15;;;;;;;5.32;100.00;102762.28;4887786;29;20111;-72
2022/12/01 09:24:43;;;;;;;123.82;38.17;;;;;;;5.36;100.00;102763.09;4887641;29;20056;-73
2022/12/01 09:27:09;;;;;;;124.00;36.50;;;;;;;5.32;100.00;102759.63;4889385;29;20051;-72
2022/12/01 09:29:34;;;;;;;130.23;39.05;;;;;;;5.39;100.00;102758.66;4889278;29;20044;-74
2022/12/01 09:32:00;;;;;;;125.07;36.08;;;;;;;5.38;100.00;102753.41;4888746;29;20044;-74
2022/12/01 09:34:26;;;;;;;120.88;37.10;;;;;;;5.40;100.00;102763.06;4880443;29;20056;-73
2022/12/01 09:36:55;;;;;;;121.43;35.35;;;;;;;5.38;100.00;102764.84;4888704;29;20032;-73
2022/12/01 09:39:20;;;;;;;114.72;37.75;;;;;;;5.54;100.00;102762.03;4888755;29;20037;-74
2022/12/01 09:42:06;;;;;;;122.18;38.13;;;;;;;5.52;100.00;102769.97;4892918;29;20576;-73
2022/12/01 09:44:41;;;;;;;113.45;35.90;;;;;;;5.53;100.00;102768.22;4882503;29;20052;-73
2022/12/01 09:47:11;;;;;;;137.63;37.15;;;;;;;5.56;100.00;102762.88;4882776;29;20044;-74
2022/12/01 09:49:53;;;;;;;105.60;36.63;;;;;;;5.59;100.00;102766.38;4883386;29;20041;-74
2022/12/01 09:52:20;;;;;;;114.55;34.85;;;;;;;5.46;100.00;102770.91;4886761;29;20413;-74
2022/12/01 09:54:46;;;;;;;113.45;34.42;;;;;;;5.48;100.00;102760.34;4886288;29;20076;-73
2022/12/01 09:57:23;;;;;;;112.32;34.38;;;;;;;5.53;100.00;102757.66;4881999;29;20044;-74
2022/12/01 09:59:51;;;;;;;114.00;35.45;;;;;;;5.59;100.00;102757.56;4881036;29;20044;-74
2022/12/01 10:02:26;;;;;;;103.68;33.00;;;;;;;5.48;100.00;102751.53;4888147;29;20041;-73
2022/12/01 10:04:54;;;;;;;116.68;36.22;;;;;;;5.59;100.00;102755.78;4888251;29;20104;-73
2022/12/01 10:07:24;;;;;;;117.13;35.92;;;;;;;5.63;100.00;102752.22;4888100;29;20071;-73
2022/12/01 10:10:00;;;;;;;109.60;35.08;;;;;;;5.69;100.00;102744.19;4876149;29;20064;-76
2022/12/01 10:12:30;;;;;;;111.55;34.53;;;;;;;5.79;100.00;102739.66;4888285;29;20059;-72
2022/12/01 10:15:12;;;;;;;114.10;33.33;;;;;;;5.68;100.00;102734.50;4888002;29;20044;-74
2022/12/01 10:18:30;;;;;;;107.32;35.63;;;;;;;5.79;100.00;102744.09;4888084;29;20096;-73
2022/12/01 10:21:10;;;;;;;106.90;34.13;;;;;;;5.72;100.00;102743.28;4873449;29;20057;-73
2022/12/01 10:24:13;;;;;;;99.93;35.30;;;;;;;5.72;100.00;102743.28;4888520;29;20576;-74
2022/12/01 10:27:09;;;;;;;97.40;30.55;;;;;;;5.76;100.00;102738.81;4876305;29;20044;-72
2022/12/01 10:30:04;;;;;;;103.60;33.67;;;;;;;5.91;100.00;102742.16;4888552;29;20051;-73
2022/12/01 10:32:50;;;;;;;100.57;33.17;;;;;;;5.92;100.00;102737.75;4882306;29;20563;-73
2022/12/01 10:35:28;;;;;;;107.18;34.70;;;;;;;5.95;100.00;102741.25;4888659;29;20049;-74
2022/12/01 10:38:00;;;;;;;109.47;34.85;;;;;;;5.91;100.00;102738.63;4888407;29;20573;-73
2022/12/01 10:40:27;;;;;;;105.13;32.20;;;;;;;5.97;100.00;102733.25;4888216;29;20040;-72
2022/12/01 10:42:53;;;;;;;96.00;30.13;;;;;;;5.86;100.00;102733.38;4896254;29;20044;-72
2022/12/01 10:45:24;;;;;;;102.78;33.15;;;;;;;5.84;100.00;102731.66;4875179;29;20041;-73
2022/12/01 10:48:21;;;;;;;113.33;35.77;;;;;;;5.96;100.00;102734.16;4881308;29;20051;-73
2022/12/01 10:50:55;;;;;;;102.35;35.05;;;;;;;6.08;100.00;102731.38;4875906;29;20440;-74
2022/12/01 10:53:27;;;;;;;94.97;33.10;;;;;;;5.90;100.00;102732.44;4886052;29;20410;-74
2022/12/01 10:56:05;;;;;;;103.85;37.45;;;;;;;5.90;100.00;102737.75;4873307;29;20052;-73
2022/12/01 10:58:54;;;;;;;90.70;31.50;;;;;;;5.89;100.00;102725.41;4885764;29;20036;-74
2022/12/01 11:01:30;;;;;;;89.00;30.92;;;;;;;6.01;100.00;102726.16;4887470;29;20044;-74
2022/12/01 11:04:01;;;;;;;100.85;30.67;;;;;;;6.00;100.00;102721.78;4886907;29;20051;-74
2022/12/01 11:06:29;;;;;;;102.07;32.00;;;;;;;6.02;100.00;102727.91;4886817;29;20573;-73
2022/12/01 11:09:01;;;;;;;94.28;33.60;;;;;;;5.97;100.00;102725.31;4887041;29;20040;-73
2022/12/01 11:11:34;;;;;;;85.90;33.58;;;;;;;5.88;100.00;102723.66;4887284;29;20825;-73
2022/12/01 11:14:22;;;;;;;99.32;31.02;;;;;;;5.96;100.00;102729.75;4887026;29;20056;-73
2022/12/01 11:16:50;;;;;;;90.82;29.58;;;;;;;5.83;100.00;102728.16;4877835;29;20815;-72
2022/12/01 11:19:31;;;;;;;92.05;30.67;;;;;;;5.91;100.00;102728.03;4886921;29;20072;-73